createdAt,value
2019-05-06T00:00:16.132Z,99031.61
2019-05-06T00:02:44.169Z,99023.83
2019-05-06T00:05:14.429Z,99033.41
2019-05-06T00:07:44.684Z,99035.37
2019-05-06T00:10:34.127Z,99032.50
2019-05-06T00:13:01.741Z,99036.75
2019-05-06T00:15:29.413Z,99038.60
2019-05-06T00:17:56.728Z,99039.90
2019-05-06T00:20:27.196Z,99035.13
2019-05-06T00:23:01.345Z,99033.63
2019-05-06T00:25:30.923Z,99037.42
2019-05-06T00:28:14.616Z,99033.84
2019-05-06T00:30:43.859Z,99031.82
2019-05-06T00:33:10.948Z,99029.93
2019-05-06T00:35:37.735Z,99036.94
2019-05-06T00:38:04.769Z,99033.30
2019-05-06T00:40:34.101Z,99033.96
2019-05-06T00:43:04.875Z,99035.07
2019-05-06T00:45:33.995Z,99035.57
2019-05-06T00:48:00.814Z,99030.99
2019-05-06T00:50:27.695Z,99038.48
2019-05-06T00:52:56.199Z,99043.95
2019-05-06T00:55:24.146Z,99038.08
2019-05-06T00:57:51.526Z,99039.70
2019-05-06T01:00:24.164Z,99040.67
2019-05-06T01:02:51.086Z,99044.36
2019-05-06T01:05:21.338Z,99039.22
2019-05-06T01:07:48.416Z,99045.26
2019-05-06T01:10:16.646Z,99044.25
2019-05-06T01:12:45.489Z,99047.05
2019-05-06T01:15:17.775Z,99043.91
2019-05-06T01:17:45.431Z,99051.09
2019-05-06T01:20:14.670Z,99054.42
2019-05-06T01:22:43.662Z,99047.16
2019-05-06T01:25:11.265Z,99053.27
2019-05-06T01:27:38.141Z,99048.22
2019-05-06T01:30:06.610Z,99051.70
2019-05-06T01:32:34.529Z,99058.41
2019-05-06T01:35:01.377Z,99055.28
2019-05-06T01:37:28.375Z,99058.14
2019-05-06T01:39:55.314Z,99058.02
2019-05-06T01:42:28.464Z,99055.61
2019-05-06T01:44:55.157Z,99056.27
2019-05-06T01:47:23.797Z,99059.98
2019-05-06T01:49:50.658Z,99058.17
2019-05-06T01:52:17.825Z,99056.37
2019-05-06T01:54:45.478Z,99058.47
2019-05-06T01:57:13.802Z,99057.02
2019-05-06T01:59:41.898Z,99064.63
2019-05-06T02:02:09.073Z,99059.90
2019-05-06T02:04:36.228Z,99060.73
2019-05-06T02:07:03.780Z,99065.88
2019-05-06T02:09:34.010Z,99064.77
2019-05-06T02:12:04.358Z,99072.45
2019-05-06T02:14:30.937Z,99072.96
2019-05-06T02:16:57.851Z,99072.27
2019-05-06T02:19:25.009Z,99076.06
2019-05-06T02:21:54.372Z,99076.63
2019-05-06T02:24:24.413Z,99071.86
2019-05-06T02:26:54.251Z,99073.71
2019-05-06T02:29:25.556Z,99074.48
2019-05-06T02:32:16.029Z,99075.08
2019-05-06T02:34:45.803Z,99079.33
2019-05-06T02:37:18.153Z,99077.66
2019-05-06T02:39:44.955Z,99076.64
2019-05-06T02:42:13.124Z,99080.00
2019-05-06T02:44:40.265Z,99076.48
2019-05-06T02:47:14.646Z,99081.79
2019-05-06T02:49:49.300Z,99073.13
2019-05-06T02:52:16.393Z,99075.20
2019-05-06T02:54:43.260Z,99069.48
2019-05-06T02:57:12.982Z,99075.23
2019-05-06T02:59:39.806Z,99077.97
2019-05-06T03:02:07.389Z,99077.52
2019-05-06T03:04:34.642Z,99077.52
2019-05-06T03:07:03.650Z,99085.25
2019-05-06T03:09:30.736Z,99081.06
2019-05-06T03:11:57.498Z,99085.38
2019-05-06T03:14:25.209Z,99085.66
2019-05-06T03:16:53.769Z,99079.49
2019-05-06T03:19:23.939Z,99084.95
2019-05-06T03:21:58.598Z,99083.62
2019-05-06T03:24:27.955Z,99081.45
2019-05-06T03:26:56.947Z,99083.34
2019-05-06T03:29:25.467Z,99085.98
2019-05-06T03:31:56.400Z,99080.10
2019-05-06T03:34:48.927Z,99088.39
2019-05-06T03:36:55.996Z,99081.45
2019-05-06T03:39:24.674Z,99087.65
2019-05-06T03:41:53.778Z,99080.24
2019-05-06T03:44:23.887Z,99084.05
2019-05-06T03:46:53.723Z,99085.98
2019-05-06T03:49:23.844Z,99086.78
2019-05-06T03:51:55.980Z,99082.92
2019-05-06T03:54:23.233Z,99081.91
2019-05-06T03:56:53.709Z,99087.84
2019-05-06T03:59:23.358Z,99088.07
2019-05-06T04:01:53.314Z,99086.92
2019-05-06T04:04:19.126Z,99089.84
2019-05-06T04:06:46.794Z,99086.69
2019-05-06T04:09:13.943Z,99086.73
2019-05-06T04:11:43.290Z,99094.57
2019-05-06T04:14:13.971Z,99091.93
2019-05-06T04:16:44.012Z,99094.70
2019-05-06T04:19:13.107Z,99097.12
2019-05-06T04:21:43.443Z,99092.81
2019-05-06T04:24:13.327Z,99097.11
2019-05-06T04:26:40.261Z,99099.16
2019-05-06T04:29:07.543Z,99106.15
2019-05-06T04:31:34.443Z,99104.58
2019-05-06T04:34:10.012Z,99103.98
2019-05-06T04:36:33.459Z,99112.55
2019-05-06T04:39:03.909Z,99113.29
2019-05-06T04:41:29.339Z,99110.27
2019-05-06T04:43:59.143Z,99116.71
2019-05-06T04:46:26.622Z,99110.05
2019-05-06T04:48:53.993Z,99113.89
2019-05-06T04:51:24.388Z,99115.46
2019-05-06T04:53:53.432Z,99117.75
2019-05-06T04:56:19.843Z,99119.97
2019-05-06T04:58:47.617Z,99124.89
2019-05-06T05:01:15.871Z,99125.53
2019-05-06T05:03:43.229Z,99126.98
2019-05-06T05:06:13.444Z,99124.57
2019-05-06T05:08:42.593Z,99121.84
2019-05-06T05:11:12.798Z,99136.56
2019-05-06T05:13:53.209Z,99143.71
2019-05-06T05:16:22.183Z,99136.98
2019-05-06T05:18:54.570Z,99144.30
2019-05-06T05:21:22.923Z,99151.67
2019-05-06T05:23:49.951Z,99144.83
2019-05-06T05:26:17.423Z,99151.31
2019-05-06T05:28:44.203Z,99157.84
2019-05-06T05:31:12.304Z,99159.16
2019-05-06T05:33:39.636Z,99165.92
2019-05-06T05:36:06.799Z,99163.02
2019-05-06T05:38:33.910Z,99165.75
2019-05-06T05:41:02.882Z,99172.83
2019-05-06T05:43:39.645Z,99174.77
2019-05-06T05:46:08.109Z,99178.09
2019-05-06T05:48:35.955Z,99178.16
2019-05-06T05:51:03.476Z,99178.45
2019-05-06T05:53:32.843Z,99185.72
2019-05-06T05:56:02.539Z,99184.89
2019-05-06T05:58:29.485Z,99186.52
2019-05-06T06:00:56.548Z,99191.76
2019-05-06T06:03:23.377Z,99193.13
2019-05-06T06:05:52.040Z,99194.49
2019-05-06T06:08:22.137Z,99198.01
2019-05-06T06:10:56.715Z,99201.32
2019-05-06T06:13:23.708Z,99198.14
2019-05-06T06:16:09.242Z,99197.62
2019-05-06T06:18:42.983Z,99201.98
2019-05-06T06:21:32.198Z,99198.21
2019-05-06T06:24:02.806Z,99199.52
2019-05-06T06:26:32.337Z,99203.22
2019-05-06T06:28:58.966Z,99206.83
2019-05-06T06:31:30.749Z,99204.20
2019-05-06T06:34:01.933Z,99199.16
2019-05-06T06:36:47.264Z,99199.17
2019-05-06T06:39:19.036Z,99197.33
2019-05-06T06:41:47.055Z,99188.98
2019-05-06T06:44:26.390Z,99196.29
2019-05-06T06:46:54.678Z,99197.93
2019-05-06T06:49:22.332Z,99197.62
2019-05-06T06:51:50.552Z,99193.50
2019-05-06T06:54:22.705Z,99197.31
2019-05-06T06:57:08.496Z,99196.80
2019-05-06T06:59:42.669Z,99201.88
2019-05-06T07:02:24.982Z,99198.10
2019-05-06T07:04:55.216Z,99196.22
2019-05-06T07:07:39.525Z,99206.72
2019-05-06T07:09:53.633Z,99199.41
2019-05-06T07:12:20.633Z,99198.84
2019-05-06T07:14:52.209Z,99201.03
2019-05-06T07:17:19.590Z,99204.25
2019-05-06T07:19:48.267Z,99199.17
2019-05-06T07:22:15.069Z,99201.09
2019-05-06T07:24:44.124Z,99205.67
2019-05-06T07:27:12.906Z,99207.78
2019-05-06T07:29:39.919Z,99210.23
2019-05-06T07:32:07.914Z,99204.30
2019-05-06T07:34:34.707Z,99204.60
2019-05-06T07:37:03.457Z,99210.31
2019-05-06T07:39:30.420Z,99212.69
2019-05-06T07:41:59.245Z,99216.45
2019-05-06T07:44:36.872Z,99205.70
2019-05-06T07:47:24.306Z,99206.50
2019-05-06T07:49:53.087Z,99214.08
2019-05-06T07:52:23.052Z,99207.03
2019-05-06T07:54:49.847Z,99217.89
2019-05-06T07:57:17.015Z,99214.98
2019-05-06T07:59:45.036Z,99216.06
2019-05-06T08:02:13.074Z,99215.27
2019-05-06T08:04:42.044Z,99216.61
2019-05-06T08:07:09.120Z,99209.88
2019-05-06T08:09:36.371Z,99218.23
2019-05-06T08:12:04.184Z,99219.59
2019-05-06T08:14:42.823Z,99219.33
2019-05-06T08:17:13.537Z,99224.45
2019-05-06T08:19:42.289Z,99224.19
2019-05-06T08:22:17.085Z,99224.45
2019-05-06T08:24:43.877Z,99219.06
2019-05-06T08:27:12.328Z,99215.80
2019-05-06T08:29:39.418Z,99221.48
2019-05-06T08:32:06.658Z,99219.86
2019-05-06T08:34:34.277Z,99215.27
2019-05-06T08:37:02.446Z,99223.34
2019-05-06T08:39:29.928Z,99216.90
2019-05-06T08:41:57.195Z,99220.94
2019-05-06T08:44:24.500Z,99213.66
2019-05-06T08:46:53.247Z,99211.75
2019-05-06T08:49:22.433Z,99215.00
2019-05-06T08:51:53.031Z,99218.49
2019-05-06T08:54:29.210Z,99220.38
2019-05-06T08:56:56.194Z,99214.70
2019-05-06T08:59:24.016Z,99208.64
2019-05-06T09:01:53.626Z,99205.92
2019-05-06T09:04:22.778Z,99202.99
2019-05-06T09:06:50.055Z,99203.07
2019-05-06T09:09:17.445Z,99200.14
2019-05-06T09:11:44.271Z,99202.58
2019-05-06T09:14:13.705Z,99204.01
2019-05-06T09:16:43.767Z,99207.13
2019-05-06T09:19:10.054Z,99198.78
2019-05-06T09:21:37.278Z,99201.69
2019-05-06T09:24:04.199Z,99205.22
2019-05-06T09:26:35.834Z,99210.45
2019-05-06T09:29:17.182Z,99205.95
2019-05-06T09:31:43.882Z,99201.13
2019-05-06T09:34:29.177Z,99200.88
2019-05-06T09:37:13.672Z,99200.32
2019-05-06T09:39:45.204Z,99193.83
2019-05-06T09:42:13.436Z,99197.59
2019-05-06T09:44:42.955Z,99199.23
2019-05-06T09:47:14.854Z,99196.99
2019-05-06T09:49:47.204Z,99200.08
2019-05-06T09:52:14.545Z,99194.95
2019-05-06T09:54:43.621Z,99193.15
2019-05-06T09:57:12.823Z,99193.09
2019-05-06T09:59:42.034Z,99197.88
2019-05-06T10:02:09.395Z,99194.08
2019-05-06T10:04:36.157Z,99191.52
2019-05-06T10:07:03.743Z,99191.78
2019-05-06T10:09:32.603Z,99192.98
2019-05-06T10:12:01.930Z,99188.45
2019-05-06T10:14:28.377Z,99186.22
2019-05-06T10:16:55.913Z,99185.63
2019-05-06T10:19:23.019Z,99179.56
2019-05-06T10:21:50.387Z,99177.18
2019-05-06T10:24:17.336Z,99182.77
2019-05-06T10:26:46.088Z,99184.13
2019-05-06T10:29:18.256Z,99181.61
2019-05-06T10:31:46.943Z,99184.48
2019-05-06T10:34:16.437Z,99185.33
2019-05-06T10:37:19.266Z,99181.64
2019-05-06T10:39:56.878Z,99182.04
2019-05-06T10:42:35.479Z,99181.47
2019-05-06T10:45:25.270Z,99175.98
2019-05-06T10:47:53.812Z,99182.34
2019-05-06T10:50:22.971Z,99180.98
2019-05-06T10:53:08.465Z,99180.89
2019-05-06T10:55:37.778Z,99172.97
2019-05-06T10:58:05.079Z,99180.06
2019-05-06T11:00:33.156Z,99178.17
2019-05-06T11:03:08.349Z,99181.94
2019-05-06T11:05:36.086Z,99174.91
2019-05-06T11:08:06.049Z,99175.16
2019-05-06T11:10:40.807Z,99168.80
2019-05-06T11:13:05.671Z,99165.05
2019-05-06T11:15:32.996Z,99170.34
2019-05-06T11:18:04.133Z,99168.95
2019-05-06T11:20:28.758Z,99171.66
2019-05-06T11:23:01.941Z,99165.37
2019-05-06T11:25:29.381Z,99170.56
2019-05-06T11:27:59.597Z,99165.83
2019-05-06T11:30:28.504Z,99171.63
2019-05-06T11:33:08.371Z,99165.34
2019-05-06T11:36:06.177Z,99169.28
2019-05-06T11:38:34.914Z,99166.38
2019-05-06T11:41:02.186Z,99165.60
2019-05-06T11:43:42.873Z,99165.10
2019-05-06T11:46:22.734Z,99165.94
2019-05-06T11:48:52.278Z,99164.59
2019-05-06T11:51:24.716Z,99159.02
2019-05-06T11:53:53.852Z,99159.84
2019-05-06T11:56:24.266Z,99159.87
2019-05-06T11:58:53.631Z,99170.51
2019-05-06T12:01:28.724Z,99163.57
2019-05-06T12:03:55.818Z,99161.18
2019-05-06T12:06:23.307Z,99163.67
2019-05-06T12:08:52.741Z,99163.75
2019-05-06T12:11:22.908Z,99160.55
2019-05-06T12:13:49.488Z,99163.57
2019-05-06T12:16:17.012Z,99160.53
2019-05-06T12:18:44.264Z,99164.00
2019-05-06T12:21:18.135Z,99166.20
2019-05-06T12:23:44.292Z,99165.63
2019-05-06T12:26:09.865Z,99163.33
2019-05-06T12:28:37.018Z,99162.59
2019-05-06T12:31:03.977Z,99158.60
2019-05-06T12:33:33.197Z,99159.55
2019-05-06T12:36:08.311Z,99161.61
2019-05-06T12:38:37.161Z,99159.27
2019-05-06T12:41:04.948Z,99158.62
2019-05-06T12:43:33.058Z,99158.87
2019-05-06T12:46:04.734Z,99156.84
2019-05-06T12:48:38.198Z,99153.09
2019-05-06T12:51:05.267Z,99153.78
2019-05-06T12:53:35.013Z,99163.38
2019-05-06T12:56:03.152Z,99156.41
2019-05-06T12:58:30.276Z,99152.85
2019-05-06T13:00:57.112Z,99155.52
2019-05-06T13:03:24.127Z,99146.94
2019-05-06T13:05:52.092Z,99145.55
2019-05-06T13:08:20.998Z,99145.98
2019-05-06T13:10:48.583Z,99141.33
2019-05-06T13:13:15.892Z,99139.77
2019-05-06T13:15:45.342Z,99143.21
2019-05-06T13:18:12.630Z,99146.74
2019-05-06T13:20:39.657Z,99143.31
2019-05-06T13:23:15.654Z,99134.91
2019-05-06T13:25:42.197Z,99134.98
2019-05-06T13:28:09.257Z,99135.19
2019-05-06T13:30:36.838Z,99145.02
2019-05-06T13:33:05.890Z,99144.34
2019-05-06T13:35:32.870Z,99144.05
2019-05-06T13:38:00.377Z,99147.74
2019-05-06T13:40:27.387Z,99144.95
2019-05-06T13:43:05.425Z,99145.13
2019-05-06T13:45:35.417Z,99150.13
2019-05-06T13:48:10.065Z,99159.24
2019-05-06T13:50:41.943Z,99160.36
2019-05-06T13:53:14.038Z,99158.83
2019-05-06T13:55:37.959Z,99156.38
2019-05-06T13:58:05.275Z,99152.34
2019-05-06T14:00:34.205Z,99150.39
2019-05-06T14:03:02.092Z,99149.22
2019-05-06T14:05:29.236Z,99150.84
2019-05-06T14:07:56.497Z,99142.45
2019-05-06T14:10:23.703Z,99143.81
2019-05-06T14:12:53.191Z,99137.55
2019-05-06T14:15:23.040Z,99136.95
2019-05-06T14:17:50.269Z,99132.95
2019-05-06T14:20:17.722Z,99128.83
2019-05-06T14:22:44.606Z,99134.00
2019-05-06T14:25:33.170Z,99132.01
2019-05-06T14:28:12.416Z,99134.67
2019-05-06T14:30:39.453Z,99134.02
2019-05-06T14:33:06.310Z,99138.66
2019-05-06T14:35:33.893Z,99131.52
2019-05-06T14:38:03.127Z,99132.11
2019-05-06T14:40:34.354Z,99134.58
2019-05-06T14:43:02.271Z,99134.48
2019-05-06T14:45:33.113Z,99131.77
2019-05-06T14:47:58.913Z,99133.91
2019-05-06T14:50:31.644Z,99134.45
2019-05-06T14:52:55.045Z,99141.89
2019-05-06T14:55:27.286Z,99147.37
2019-05-06T14:57:54.536Z,99142.64
2019-05-06T15:00:23.084Z,99142.23
2019-05-06T15:02:53.285Z,99141.69
2019-05-06T15:05:22.644Z,99134.39
2019-05-06T15:07:50.137Z,99139.16
2019-05-06T15:10:23.284Z,99136.35
2019-05-06T15:12:47.762Z,99137.80
2019-05-06T15:15:16.845Z,99136.45
2019-05-06T15:17:43.845Z,99131.86
2019-05-06T15:20:12.221Z,99137.64
2019-05-06T15:22:39.299Z,99142.48
2019-05-06T15:25:06.969Z,99144.91
2019-05-06T15:27:36.754Z,99137.83
2019-05-06T15:30:12.395Z,99138.67
2019-05-06T15:32:39.715Z,99136.55
2019-05-06T15:35:26.035Z,99135.53
2019-05-06T15:37:55.552Z,99137.97
2019-05-06T15:40:31.976Z,99131.72
2019-05-06T15:42:53.341Z,99137.61
2019-05-06T15:45:21.920Z,99142.54
2019-05-06T15:47:48.823Z,99133.30
2019-05-06T15:50:16.688Z,99134.41
2019-05-06T15:52:43.845Z,99134.94
2019-05-06T15:55:12.330Z,99138.17
2019-05-06T15:57:40.007Z,99137.89
2019-05-06T16:00:09.728Z,99133.13
2019-05-06T16:02:36.514Z,99129.30
2019-05-06T16:05:11.587Z,99125.06
2019-05-06T16:07:37.245Z,99126.52
2019-05-06T16:10:07.402Z,99126.33
2019-05-06T16:12:34.786Z,99125.70
2019-05-06T16:15:08.422Z,99133.51
2019-05-06T16:17:35.626Z,99128.30
2019-05-06T16:20:04.754Z,99128.36
2019-05-06T16:22:34.570Z,99125.64
2019-05-06T16:25:09.131Z,99130.94
2019-05-06T16:27:36.070Z,99131.20
2019-05-06T16:30:13.089Z,99137.13
2019-05-06T16:32:42.355Z,99138.55
2019-05-06T16:35:11.946Z,99136.12
2019-05-06T16:37:42.163Z,99126.51
2019-05-06T16:40:12.373Z,99124.84
2019-05-06T16:42:39.573Z,99131.72
2019-05-06T16:45:13.470Z,99132.31
2019-05-06T16:47:47.374Z,99133.47
2019-05-06T16:50:18.516Z,99132.80
2019-05-06T16:52:46.318Z,99136.70
2019-05-06T16:55:19.664Z,99135.28
2019-05-06T16:57:55.150Z,99134.09
2019-05-06T17:00:27.206Z,99131.80
2019-05-06T17:02:59.522Z,99136.81
2019-05-06T17:05:42.519Z,99140.20
2019-05-06T17:08:12.201Z,99135.70
2019-05-06T17:10:40.383Z,99136.91
2019-05-06T17:13:12.599Z,99133.48
2019-05-06T17:15:40.278Z,99134.07
2019-05-06T17:18:08.249Z,99132.99
2019-05-06T17:20:36.685Z,99142.29
2019-05-06T17:23:03.908Z,99138.68
2019-05-06T17:25:32.900Z,99134.86
2019-05-06T17:28:03.204Z,99136.78
2019-05-06T17:30:51.664Z,99138.94
2019-05-06T17:33:34.258Z,99141.70
2019-05-06T17:36:03.075Z,99142.83
2019-05-06T17:38:42.159Z,99145.67
2019-05-06T17:41:09.426Z,99141.41
2019-05-06T17:43:40.320Z,99138.72
2019-05-06T17:46:06.888Z,99140.34
2019-05-06T17:48:52.928Z,99137.74
2019-05-06T17:51:28.651Z,99138.28
2019-05-06T17:53:57.807Z,99133.42
2019-05-06T17:56:25.571Z,99147.78
2019-05-06T17:58:53.392Z,99146.23
2019-05-06T18:01:23.379Z,99149.27
2019-05-06T18:03:52.685Z,99147.38
2019-05-06T18:06:19.712Z,99153.91
2019-05-06T18:08:46.632Z,99145.51
2019-05-06T18:11:13.588Z,99149.32
2019-05-06T18:13:40.783Z,99153.45
2019-05-06T18:16:13.171Z,99154.25
2019-05-06T18:18:40.325Z,99160.52
2019-05-06T18:21:07.440Z,99155.14
2019-05-06T18:23:34.282Z,99162.17
2019-05-06T18:26:03.033Z,99166.28
2019-05-06T18:28:32.174Z,99163.09
2019-05-06T18:30:59.823Z,99167.23
2019-05-06T18:33:27.119Z,99167.24
2019-05-06T18:35:54.646Z,99167.24
2019-05-06T18:38:22.562Z,99169.44
2019-05-06T18:40:49.902Z,99171.63
2019-05-06T18:43:17.286Z,99172.48
2019-05-06T18:45:44.096Z,99169.52
2019-05-06T18:48:12.156Z,99171.72
2019-05-06T18:50:42.318Z,99173.64
2019-05-06T18:53:13.322Z,99174.98
2019-05-06T18:55:42.122Z,99182.88
2019-05-06T18:58:09.793Z,99180.52
2019-05-06T19:00:36.806Z,99183.50
2019-05-06T19:03:04.196Z,99178.96
2019-05-06T19:05:42.885Z,99184.60
2019-05-06T19:08:17.804Z,99188.14
2019-05-06T19:10:45.040Z,99185.44
2019-05-06T19:13:13.394Z,99187.92
2019-05-06T19:15:40.479Z,99189.44
2019-05-06T19:18:07.244Z,99192.20
2019-05-06T19:20:34.214Z,99197.41
2019-05-06T19:23:02.369Z,99200.51
2019-05-06T19:25:29.351Z,99206.30
2019-05-06T19:27:56.903Z,99208.75
2019-05-06T19:30:23.978Z,99210.67
2019-05-06T19:32:53.116Z,99206.11
2019-05-06T19:35:20.398Z,99213.41
2019-05-06T19:37:47.626Z,99210.77
2019-05-06T19:40:14.990Z,99210.25
2019-05-06T19:42:49.700Z,99210.77
2019-05-06T19:45:15.500Z,99209.52
2019-05-06T19:47:43.833Z,99211.13
2019-05-06T19:50:12.545Z,99212.22
2019-05-06T19:52:42.208Z,99214.95
2019-05-06T19:55:12.557Z,99218.72
2019-05-06T19:57:39.439Z,99215.52
2019-05-06T20:00:07.222Z,99213.08
2019-05-06T20:02:35.228Z,99215.81
2019-05-06T20:05:07.748Z,99215.30
2019-05-06T20:07:42.991Z,99215.04
2019-05-06T20:10:12.740Z,99214.33
2019-05-06T20:12:58.390Z,99214.09
2019-05-06T20:15:33.442Z,99213.28
2019-05-06T20:18:03.058Z,99210.54
2019-05-06T20:20:34.362Z,99206.75
2019-05-06T20:22:59.845Z,99205.97
2019-05-06T20:25:27.636Z,99203.80
2019-05-06T20:27:54.572Z,99204.88
2019-05-06T20:30:23.843Z,99204.89
2019-05-06T20:32:52.236Z,99203.27
2019-05-06T20:35:19.371Z,99198.67
2019-05-06T20:37:46.595Z,99197.05
2019-05-06T20:40:14.719Z,99199.77
2019-05-06T20:42:42.717Z,99188.94
2019-05-06T20:45:10.184Z,99189.22
2019-05-06T20:47:36.979Z,99184.91
2019-05-06T20:50:06.353Z,99183.54
2019-05-06T20:52:33.240Z,99185.47
2019-05-06T20:55:02.778Z,99185.17
2019-05-06T20:57:30.488Z,99188.95
2019-05-06T20:59:59.861Z,99190.59
2019-05-06T21:02:27.136Z,99188.16
2019-05-06T21:04:54.133Z,99188.19
2019-05-06T21:07:23.139Z,99189.80
2019-05-06T21:09:52.405Z,99191.14
2019-05-06T21:12:19.183Z,99191.95
2019-05-06T21:14:46.316Z,99191.44
2019-05-06T21:17:13.699Z,99192.53
2019-05-06T21:19:40.563Z,99193.89
2019-05-06T21:22:07.573Z,99196.30
2019-05-06T21:24:36.170Z,99198.45
2019-05-06T21:27:03.650Z,99192.23
2019-05-06T21:29:32.475Z,99194.41
2019-05-06T21:31:59.502Z,99185.21
2019-05-06T21:34:26.711Z,99186.58
2019-05-06T21:36:54.016Z,99186.34
2019-05-06T21:39:22.420Z,99182.86
2019-05-06T21:41:52.007Z,99180.96
2019-05-06T21:44:19.001Z,99181.50
2019-05-06T21:46:46.254Z,99183.67
2019-05-06T21:49:13.354Z,99178.00
2019-05-06T21:51:42.299Z,99185.02
2019-05-06T21:54:08.990Z,99179.38
2019-05-06T21:56:36.011Z,99180.72
2019-05-06T21:59:03.049Z,99177.48
2019-05-06T22:01:30.487Z,99173.16
2019-05-06T22:03:57.353Z,99166.14
2019-05-06T22:06:24.396Z,99168.03
2019-05-06T22:08:51.920Z,99165.06
2019-05-06T22:11:19.002Z,99165.34
2019-05-06T22:13:57.941Z,99163.98
2019-05-06T22:16:14.645Z,99167.50
2019-05-06T22:18:43.190Z,99160.98
2019-05-06T22:21:16.101Z,99164.21
2019-05-06T22:23:52.027Z,99162.85
2019-05-06T22:26:19.417Z,99161.22
2019-05-06T22:28:46.782Z,99163.93
2019-05-06T22:31:13.643Z,99163.13
2019-05-06T22:33:42.754Z,99165.28
2019-05-06T22:36:09.232Z,99164.46
2019-05-06T22:38:38.077Z,99159.60
2019-05-06T22:41:05.787Z,99162.27
2019-05-06T22:43:32.914Z,99155.25
2019-05-06T22:45:59.771Z,99157.13
2019-05-06T22:48:26.830Z,99159.85
2019-05-06T22:50:53.623Z,99156.61
2019-05-06T22:53:24.928Z,99162.52
2019-05-06T22:55:53.678Z,99159.78
2019-05-06T22:58:22.770Z,99158.17
2019-05-06T23:00:53.762Z,99159.25
2019-05-06T23:03:28.716Z,99157.63
2019-05-06T23:05:55.504Z,99153.05
2019-05-06T23:08:22.275Z,99158.70
2019-05-06T23:10:49.720Z,99164.78
2019-05-06T23:13:17.539Z,99164.97
2019-05-06T23:15:44.317Z,99157.40
2019-05-06T23:18:11.753Z,99161.94
2019-05-06T23:20:40.593Z,99160.56
2019-05-06T23:23:08.893Z,99155.39
2019-05-06T23:25:35.954Z,99166.38
2019-05-06T23:28:03.172Z,99161.99
2019-05-06T23:30:30.128Z,99160.30
2019-05-06T23:32:56.862Z,99160.66
2019-05-06T23:35:23.827Z,99164.30
2019-05-06T23:38:46.712Z,99162.99
2019-05-06T23:42:11.969Z,99161.72
2019-05-06T23:45:36.808Z,99175.10
2019-05-06T23:49:01.936Z,99166.93
2019-05-06T23:52:25.106Z,99173.52
2019-05-06T23:55:48.401Z,99161.08
2019-05-06T23:58:14.826Z,99164.78
